createdAt,value
2018-08-31T00:00:43.133Z,0
2018-08-31T00:01:43.695Z,0
2018-08-31T00:02:44.239Z,0
2018-08-31T00:03:44.792Z,0
2018-08-31T00:04:45.345Z,0
2018-08-31T00:05:45.900Z,0
2018-08-31T00:06:46.452Z,0
2018-08-31T00:07:47.007Z,0
2018-08-31T00:08:47.556Z,0
2018-08-31T00:09:48.108Z,0
2018-08-31T00:10:48.662Z,0
2018-08-31T00:11:49.213Z,0
2018-08-31T00:12:49.758Z,0
2018-08-31T00:13:50.313Z,0
2018-08-31T00:14:50.863Z,0
2018-08-31T00:15:51.416Z,0
2018-08-31T00:16:51.966Z,0
2018-08-31T00:17:52.521Z,0
2018-08-31T00:18:53.079Z,0
2018-08-31T00:19:53.637Z,0
2018-08-31T00:20:54.172Z,0
2018-08-31T00:21:54.730Z,0
2018-08-31T00:22:55.278Z,0
2018-08-31T00:23:55.826Z,0
2018-08-31T00:24:56.373Z,0
2018-08-31T00:25:56.925Z,0
2018-08-31T00:26:57.477Z,0
2018-08-31T00:27:58.023Z,0
2018-08-31T00:28:58.579Z,0
2018-08-31T00:29:59.117Z,0
2018-08-31T00:30:59.669Z,0
2018-08-31T00:32:00.226Z,0
2018-08-31T00:33:00.774Z,0
2018-08-31T00:34:01.329Z,0
2018-08-31T00:35:01.882Z,0
2018-08-31T00:36:02.431Z,0
2018-08-31T00:37:02.979Z,0
2018-08-31T00:38:03.528Z,0
2018-08-31T00:39:04.077Z,0
2018-08-31T00:40:04.626Z,0
2018-08-31T00:41:05.178Z,0
2018-08-31T00:42:05.731Z,0
2018-08-31T00:43:06.284Z,0
2018-08-31T00:44:06.835Z,0
2018-08-31T00:45:07.386Z,0
2018-08-31T00:46:07.935Z,0
2018-08-31T00:47:08.484Z,0
2018-08-31T00:48:09.032Z,0
2018-08-31T00:49:09.584Z,0
2018-08-31T00:50:10.137Z,0
2018-08-31T00:51:10.689Z,0
2018-08-31T00:52:11.244Z,0
2018-08-31T00:53:11.789Z,0
2018-08-31T00:54:12.343Z,0
2018-08-31T00:55:12.895Z,0
2018-08-31T00:56:13.450Z,0
2018-08-31T00:57:14.006Z,0
2018-08-31T00:58:14.561Z,0
2018-08-31T00:59:15.108Z,0
2018-08-31T01:00:15.653Z,0
2018-08-31T01:01:16.210Z,0
2018-08-31T01:02:16.759Z,0
2018-08-31T01:03:17.310Z,0
2018-08-31T01:04:17.857Z,0
2018-08-31T01:05:18.400Z,0
2018-08-31T01:06:18.951Z,0
2018-08-31T01:07:19.510Z,0
2018-08-31T01:08:20.058Z,0
2018-08-31T01:09:20.612Z,0
2018-08-31T01:10:21.157Z,0
2018-08-31T01:11:21.716Z,0
2018-08-31T01:12:22.260Z,0
2018-08-31T01:13:22.826Z,0
2018-08-31T01:14:23.360Z,0
2018-08-31T01:15:23.911Z,0
2018-08-31T01:16:24.454Z,0
2018-08-31T01:17:25.008Z,0
2018-08-31T01:18:25.559Z,0
2018-08-31T01:19:26.112Z,0
2018-08-31T01:20:26.664Z,0
2018-08-31T01:21:27.219Z,0
2018-08-31T01:22:27.772Z,0
2018-08-31T01:23:28.320Z,0
2018-08-31T01:24:28.874Z,0
2018-08-31T01:25:29.426Z,0
2018-08-31T01:26:29.989Z,0
2018-08-31T01:27:30.532Z,0
2018-08-31T01:28:31.077Z,0
2018-08-31T01:29:31.624Z,0
2018-08-31T01:30:32.172Z,0
2018-08-31T01:31:32.725Z,0
2018-08-31T01:32:33.276Z,0
2018-08-31T01:33:33.821Z,0
2018-08-31T01:34:34.377Z,0
2018-08-31T01:35:34.927Z,0
2018-08-31T01:36:35.482Z,0
2018-08-31T01:37:36.040Z,0
2018-08-31T01:38:36.590Z,0
2018-08-31T01:39:37.135Z,0
2018-08-31T01:40:37.684Z,0
2018-08-31T01:41:38.234Z,0
2018-08-31T01:42:38.785Z,0
2018-08-31T01:43:39.339Z,0
2018-08-31T01:44:39.890Z,0
2018-08-31T01:45:40.442Z,0
2018-08-31T01:46:40.988Z,0
2018-08-31T01:47:41.533Z,0
2018-08-31T01:48:42.087Z,0
2018-08-31T01:49:42.638Z,0
2018-08-31T01:50:43.177Z,0
2018-08-31T01:51:43.733Z,0
2018-08-31T01:52:44.326Z,0
2018-08-31T01:53:44.833Z,0
2018-08-31T01:54:45.383Z,0
2018-08-31T01:55:45.938Z,0
2018-08-31T01:56:46.484Z,0
2018-08-31T01:57:47.035Z,0
2018-08-31T01:58:47.589Z,0
2018-08-31T01:59:48.140Z,0
2018-08-31T02:00:48.695Z,0
2018-08-31T02:01:49.246Z,0
2018-08-31T02:02:49.797Z,0
2018-08-31T02:03:50.348Z,0
2018-08-31T02:04:50.902Z,0
2018-08-31T02:05:51.453Z,0
2018-08-31T02:06:52.004Z,0
2018-08-31T02:07:52.615Z,0
2018-08-31T02:08:53.113Z,0
2018-08-31T02:09:53.663Z,0
2018-08-31T02:10:54.216Z,0
2018-08-31T02:11:54.765Z,0
2018-08-31T02:12:55.317Z,0
2018-08-31T02:13:55.870Z,0
2018-08-31T02:14:56.421Z,0
2018-08-31T02:15:56.975Z,0
2018-08-31T02:16:57.525Z,0
2018-08-31T02:17:58.070Z,0
2018-08-31T02:18:58.622Z,0
2018-08-31T02:19:59.177Z,0
2018-08-31T02:20:59.728Z,0
2018-08-31T02:22:00.281Z,0
2018-08-31T02:23:00.818Z,0
2018-08-31T02:24:01.370Z,0
2018-08-31T02:25:01.922Z,0
2018-08-31T02:26:02.475Z,0
2018-08-31T02:27:03.029Z,0
2018-08-31T02:28:03.578Z,0
2018-08-31T02:29:04.127Z,0
2018-08-31T02:30:04.675Z,0
2018-08-31T02:31:05.227Z,0
2018-08-31T02:32:05.779Z,0
2018-08-31T02:33:06.325Z,0
2018-08-31T02:34:06.876Z,0
2018-08-31T02:35:07.426Z,0
2018-08-31T02:36:07.972Z,0
2018-08-31T02:37:08.525Z,0
2018-08-31T02:38:09.081Z,0
2018-08-31T02:39:09.641Z,0
2018-08-31T02:40:10.183Z,0
2018-08-31T02:41:10.726Z,0
2018-08-31T02:42:11.270Z,0
2018-08-31T02:43:11.822Z,0
2018-08-31T02:44:12.377Z,0
2018-08-31T02:45:12.930Z,0
2018-08-31T02:46:13.471Z,0
2018-08-31T02:47:14.023Z,0
2018-08-31T02:48:14.580Z,0
2018-08-31T02:49:15.148Z,0
2018-08-31T02:50:15.675Z,0
2018-08-31T02:51:16.229Z,0
2018-08-31T02:52:16.783Z,0
2018-08-31T02:53:17.331Z,0
2018-08-31T02:54:17.881Z,0
2018-08-31T02:55:18.423Z,0
2018-08-31T02:56:18.971Z,0
2018-08-31T02:57:19.518Z,0
2018-08-31T02:58:20.068Z,0
2018-08-31T02:59:20.619Z,0
2018-08-31T03:00:21.172Z,0
2018-08-31T03:01:21.724Z,0
2018-08-31T03:02:22.273Z,0
2018-08-31T03:03:22.830Z,0
2018-08-31T03:04:23.375Z,0
2018-08-31T03:05:23.928Z,0
2018-08-31T03:06:24.480Z,0
2018-08-31T03:07:25.025Z,0
2018-08-31T03:08:25.577Z,0
2018-08-31T03:09:26.128Z,0
2018-08-31T03:10:26.680Z,0
2018-08-31T03:11:27.295Z,0
2018-08-31T03:12:27.784Z,0
2018-08-31T03:13:28.325Z,0
2018-08-31T03:14:28.876Z,0
2018-08-31T03:15:29.424Z,0
2018-08-31T03:16:29.978Z,0
2018-08-31T03:17:30.525Z,0
2018-08-31T03:18:31.075Z,0
2018-08-31T03:19:31.629Z,0
2018-08-31T03:20:32.187Z,0
2018-08-31T03:21:32.742Z,0
2018-08-31T03:22:33.287Z,0
2018-08-31T03:23:33.833Z,0
2018-08-31T03:24:34.382Z,0
2018-08-31T03:25:34.926Z,0
2018-08-31T03:26:35.478Z,0
2018-08-31T03:27:36.022Z,0
2018-08-31T03:28:36.579Z,0
2018-08-31T03:29:37.132Z,0
2018-08-31T03:30:37.683Z,0
2018-08-31T03:31:38.237Z,0
2018-08-31T03:32:38.787Z,0
2018-08-31T03:33:39.335Z,0
2018-08-31T03:34:39.880Z,0
2018-08-31T03:35:40.430Z,0
2018-08-31T03:36:40.979Z,0
2018-08-31T03:37:41.526Z,0
2018-08-31T03:38:42.073Z,0
2018-08-31T03:39:42.624Z,0
2018-08-31T03:40:43.173Z,0
2018-08-31T03:41:43.725Z,0
2018-08-31T03:42:44.281Z,0
2018-08-31T03:43:44.831Z,0
2018-08-31T03:44:45.385Z,0
2018-08-31T03:45:45.935Z,0
2018-08-31T03:46:46.486Z,0
2018-08-31T03:47:47.036Z,0
2018-08-31T03:48:47.579Z,0
2018-08-31T03:49:48.134Z,0
2018-08-31T03:50:48.677Z,0
2018-08-31T03:51:49.225Z,0
2018-08-31T03:52:49.782Z,0
2018-08-31T03:53:50.328Z,0
2018-08-31T03:54:50.880Z,0
2018-08-31T03:55:51.428Z,0
2018-08-31T03:56:51.979Z,0
2018-08-31T03:57:52.530Z,0
2018-08-31T03:58:53.079Z,0
2018-08-31T03:59:53.624Z,0
2018-08-31T04:00:54.174Z,0
2018-08-31T04:01:54.722Z,0
2018-08-31T04:02:55.275Z,0
2018-08-31T04:03:55.824Z,0
2018-08-31T04:04:56.373Z,0
2018-08-31T04:05:56.923Z,0
2018-08-31T04:06:57.473Z,0
2018-08-31T04:07:58.028Z,0
2018-08-31T04:08:58.579Z,0
2018-08-31T04:09:59.123Z,0
2018-08-31T04:10:59.672Z,0
2018-08-31T04:12:00.224Z,0
2018-08-31T04:13:00.774Z,0
2018-08-31T04:14:01.328Z,0
2018-08-31T04:15:01.939Z,0
2018-08-31T04:16:02.434Z,0
2018-08-31T04:17:02.981Z,0
2018-08-31T04:18:03.532Z,0
2018-08-31T04:19:04.080Z,0
2018-08-31T04:20:04.630Z,0
2018-08-31T04:21:05.182Z,0
2018-08-31T04:22:05.732Z,0
2018-08-31T04:23:06.286Z,0
2018-08-31T04:24:06.836Z,0
2018-08-31T04:25:07.388Z,0
2018-08-31T04:26:07.935Z,0
2018-08-31T04:27:08.490Z,0
2018-08-31T04:28:09.048Z,0
2018-08-31T04:29:09.605Z,0
2018-08-31T04:30:10.157Z,0
2018-08-31T04:31:10.712Z,0
2018-08-31T04:32:11.260Z,0
2018-08-31T04:33:11.810Z,0
2018-08-31T04:34:12.457Z,0
2018-08-31T04:35:12.903Z,0
2018-08-31T04:36:13.459Z,0
2018-08-31T04:37:14.013Z,0
2018-08-31T04:38:14.557Z,0
2018-08-31T04:39:15.133Z,0
2018-08-31T04:40:15.690Z,0
2018-08-31T04:41:16.255Z,0
2018-08-31T04:42:16.822Z,5
2018-08-31T04:43:17.376Z,5
2018-08-31T04:44:17.929Z,5
2018-08-31T04:45:18.481Z,5
2018-08-31T04:46:19.038Z,5
2018-08-31T04:47:19.589Z,5
2018-08-31T04:48:20.141Z,5
2018-08-31T04:49:20.698Z,5
2018-08-31T04:50:21.261Z,10
2018-08-31T04:51:21.807Z,10
2018-08-31T04:52:22.362Z,10
2018-08-31T04:53:22.915Z,10
2018-08-31T04:54:23.469Z,10
2018-08-31T04:55:24.029Z,15
2018-08-31T04:56:24.583Z,15
2018-08-31T04:57:25.138Z,15
2018-08-31T04:58:25.691Z,15
2018-08-31T04:59:26.242Z,15
2018-08-31T05:00:26.795Z,20
2018-08-31T05:01:27.341Z,20
2018-08-31T05:02:27.895Z,20
2018-08-31T05:03:28.444Z,20
2018-08-31T05:04:28.999Z,25
2018-08-31T05:05:29.558Z,25
2018-08-31T05:06:30.106Z,25
2018-08-31T05:07:30.661Z,30
2018-08-31T05:08:31.216Z,30
2018-08-31T05:09:31.772Z,30
2018-08-31T05:10:32.334Z,35
2018-08-31T05:11:32.896Z,35
2018-08-31T05:12:33.433Z,35
2018-08-31T05:13:33.993Z,40
2018-08-31T05:14:34.541Z,40
2018-08-31T05:15:35.097Z,45
2018-08-31T05:16:35.651Z,45
2018-08-31T05:17:36.204Z,45
2018-08-31T05:18:36.760Z,50
2018-08-31T05:19:37.316Z,50
2018-08-31T05:20:37.872Z,50
2018-08-31T05:21:38.423Z,50
2018-08-31T05:22:39.092Z,50
2018-08-31T05:23:39.571Z,50
2018-08-31T05:24:40.128Z,50
2018-08-31T05:25:40.686Z,55
2018-08-31T05:26:41.246Z,55
2018-08-31T05:27:41.801Z,55
2018-08-31T05:28:42.352Z,55
2018-08-31T05:29:42.905Z,55
2018-08-31T05:30:43.466Z,60
2018-08-31T05:31:44.034Z,60
2018-08-31T05:32:44.574Z,65
2018-08-31T05:33:45.136Z,65
2018-08-31T05:34:45.756Z,70
2018-08-31T05:35:46.245Z,70
2018-08-31T05:36:46.796Z,75
2018-08-31T05:37:47.350Z,75
2018-08-31T05:38:47.907Z,75
2018-08-31T05:39:48.462Z,80
2018-08-31T05:40:49.011Z,85
2018-08-31T05:41:49.591Z,85
2018-08-31T05:42:50.137Z,90
2018-08-31T05:43:50.682Z,95
2018-08-31T05:44:51.235Z,100
2018-08-31T05:45:51.797Z,100
2018-08-31T05:46:52.359Z,100
2018-08-31T05:47:52.919Z,105
2018-08-31T05:48:53.475Z,105
2018-08-31T05:49:54.030Z,110
2018-08-31T05:50:54.590Z,110
2018-08-31T05:51:55.142Z,110
2018-08-31T05:52:55.701Z,110
2018-08-31T05:53:56.259Z,115
2018-08-31T05:54:56.816Z,115
2018-08-31T05:55:57.378Z,115
2018-08-31T05:56:57.936Z,120
2018-08-31T05:57:58.494Z,120
2018-08-31T05:58:59.053Z,120
2018-08-31T05:59:59.612Z,125
2018-08-31T06:01:00.170Z,130
2018-08-31T06:02:00.782Z,135
2018-08-31T06:03:01.437Z,135
2018-08-31T06:04:01.998Z,140
2018-08-31T06:05:02.566Z,145
2018-08-31T06:06:03.133Z,145
2018-08-31T06:07:03.692Z,150
2018-08-31T06:08:04.252Z,150
2018-08-31T06:09:04.809Z,150
2018-08-31T06:10:05.369Z,150
2018-08-31T06:11:05.923Z,150
2018-08-31T06:12:06.481Z,150
2018-08-31T06:13:07.039Z,150
2018-08-31T06:14:07.596Z,150
2018-08-31T06:15:08.153Z,150
2018-08-31T06:16:08.702Z,155
2018-08-31T06:17:09.260Z,160
2018-08-31T06:18:09.819Z,165
2018-08-31T06:19:10.363Z,170
2018-08-31T06:20:10.928Z,175
2018-08-31T06:21:11.654Z,180
2018-08-31T06:22:12.031Z,190
2018-08-31T06:23:12.589Z,195
2018-08-31T06:24:13.153Z,200
2018-08-31T06:25:13.711Z,210
2018-08-31T06:26:14.267Z,215
2018-08-31T06:27:14.838Z,225
2018-08-31T06:28:15.396Z,235
2018-08-31T06:29:15.955Z,240
2018-08-31T06:30:16.514Z,245
2018-08-31T06:31:17.077Z,255
2018-08-31T06:32:17.648Z,260
2018-08-31T06:33:18.208Z,265
2018-08-31T06:34:18.766Z,270
2018-08-31T06:35:19.339Z,275
2018-08-31T06:36:19.879Z,280
2018-08-31T06:37:20.440Z,290
2018-08-31T06:38:20.992Z,290
2018-08-31T06:39:21.564Z,300
2018-08-31T06:40:22.108Z,300
2018-08-31T06:41:22.668Z,305
2018-08-31T06:42:23.230Z,315
2018-08-31T06:43:23.794Z,320
2018-08-31T06:44:24.350Z,325
2018-08-31T06:45:24.919Z,330
2018-08-31T06:46:25.469Z,330
2018-08-31T06:47:26.029Z,330
2018-08-31T06:48:26.608Z,335
2018-08-31T06:49:27.199Z,340
2018-08-31T06:50:27.763Z,345
2018-08-31T06:51:28.465Z,350
2018-08-31T06:52:28.945Z,350
2018-08-31T06:53:29.509Z,355
2018-08-31T06:54:30.080Z,360
2018-08-31T06:55:31.447Z,360
2018-08-31T06:56:31.993Z,360
2018-08-31T06:57:33.707Z,365
2018-08-31T06:58:34.266Z,370
2018-08-31T06:59:34.818Z,375
2018-08-31T07:00:35.386Z,380
2018-08-31T07:01:35.941Z,385
2018-08-31T07:02:36.532Z,395
2018-08-31T07:03:37.110Z,395
2018-08-31T07:04:37.644Z,395
2018-08-31T07:05:38.187Z,400
2018-08-31T07:06:38.748Z,405
2018-08-31T07:07:39.323Z,410
2018-08-31T07:08:39.896Z,415
2018-08-31T07:09:40.449Z,420
2018-08-31T07:10:41.010Z,425
2018-08-31T07:11:41.568Z,430
2018-08-31T07:12:42.123Z,440
2018-08-31T07:13:42.684Z,450
2018-08-31T07:14:43.248Z,455
2018-08-31T07:15:43.801Z,465
2018-08-31T07:16:44.361Z,475
2018-08-31T07:17:44.927Z,475
2018-08-31T07:18:45.483Z,485
2018-08-31T07:19:46.099Z,495
2018-08-31T07:20:46.606Z,500
2018-08-31T07:21:47.169Z,510
2018-08-31T07:22:47.724Z,510
2018-08-31T07:23:48.289Z,520
2018-08-31T07:24:48.849Z,520
2018-08-31T07:25:49.403Z,525
2018-08-31T07:26:50.071Z,535
2018-08-31T07:27:50.527Z,530
2018-08-31T07:28:51.092Z,545
2018-08-31T07:29:51.656Z,545
2018-08-31T07:30:52.217Z,555
2018-08-31T07:31:52.770Z,540
2018-08-31T07:32:53.332Z,520
2018-08-31T07:33:53.898Z,505
2018-08-31T07:34:54.463Z,485
2018-08-31T07:35:55.028Z,490
2018-08-31T07:36:55.621Z,470
2018-08-31T07:37:56.156Z,465
2018-08-31T07:38:56.720Z,465
2018-08-31T07:39:57.281Z,465
2018-08-31T07:40:57.840Z,480
2018-08-31T07:41:58.400Z,470
2018-08-31T07:42:58.967Z,465
2018-08-31T07:43:59.528Z,460
2018-08-31T07:45:00.090Z,460
2018-08-31T07:46:00.650Z,465
2018-08-31T07:47:01.365Z,480
2018-08-31T07:48:01.924Z,495
2018-08-31T07:49:02.480Z,570
2018-08-31T07:50:03.042Z,625
2018-08-31T07:51:03.605Z,720
2018-08-31T07:52:04.169Z,725
2018-08-31T07:53:04.725Z,755
2018-08-31T07:54:05.288Z,685
2018-08-31T07:55:05.852Z,525
2018-08-31T07:56:06.417Z,505
2018-08-31T07:57:06.983Z,495
2018-08-31T07:58:07.547Z,490
2018-08-31T07:59:08.108Z,485
2018-08-31T08:00:08.688Z,490
2018-08-31T08:01:09.237Z,575
2018-08-31T08:02:09.800Z,580
2018-08-31T08:03:10.357Z,650
2018-08-31T08:04:10.924Z,645
2018-08-31T08:05:11.490Z,635
2018-08-31T08:06:12.050Z,630
2018-08-31T08:07:12.617Z,660
2018-08-31T08:08:13.209Z,630
2018-08-31T08:09:13.773Z,605
2018-08-31T08:10:14.331Z,555
2018-08-31T08:11:14.887Z,535
2018-08-31T08:12:15.453Z,535
2018-08-31T08:13:16.010Z,530
2018-08-31T08:14:16.567Z,515
2018-08-31T08:15:17.130Z,495
2018-08-31T08:16:17.690Z,500
2018-08-31T08:17:18.255Z,500
2018-08-31T08:18:18.820Z,510
2018-08-31T08:19:19.388Z,505
2018-08-31T08:20:19.950Z,505
2018-08-31T08:21:20.507Z,510
2018-08-31T08:22:21.076Z,495
2018-08-31T08:23:21.633Z,480
2018-08-31T08:24:22.192Z,480
2018-08-31T08:25:22.753Z,485
2018-08-31T08:26:23.314Z,485
2018-08-31T08:27:23.933Z,490
2018-08-31T08:28:24.588Z,505
2018-08-31T08:29:25.058Z,520
2018-08-31T08:30:25.616Z,525
2018-08-31T08:31:26.182Z,550
2018-08-31T08:32:26.743Z,535
2018-08-31T08:33:27.318Z,570
2018-08-31T08:34:27.882Z,585
2018-08-31T08:35:28.444Z,660
2018-08-31T08:36:29.018Z,685
2018-08-31T08:37:29.576Z,710
2018-08-31T08:38:30.133Z,730
2018-08-31T08:39:30.702Z,770
2018-08-31T08:40:31.264Z,775
2018-08-31T08:41:31.825Z,870
2018-08-31T08:42:32.410Z,920
2018-08-31T08:43:32.938Z,915
2018-08-31T08:44:33.506Z,870
2018-08-31T08:45:34.071Z,975
2018-08-31T08:46:34.636Z,1025
2018-08-31T08:47:35.203Z,1080
2018-08-31T08:48:35.993Z,1130
2018-08-31T08:49:36.330Z,1160
2018-08-31T08:50:36.898Z,1200
2018-08-31T08:51:37.467Z,1245
2018-08-31T08:52:38.045Z,1280
2018-08-31T08:53:38.608Z,1290
2018-08-31T08:54:39.197Z,1310
2018-08-31T08:55:39.750Z,1325
2018-08-31T08:56:40.326Z,1325
2018-08-31T08:57:40.893Z,1325
2018-08-31T08:58:41.475Z,1340
2018-08-31T08:59:42.046Z,1365
2018-08-31T09:00:42.620Z,1360
2018-08-31T09:01:43.190Z,1375
2018-08-31T09:02:43.761Z,1410
2018-08-31T09:03:44.367Z,1405
2018-08-31T09:04:44.939Z,1440
2018-08-31T09:05:45.516Z,1455
2018-08-31T09:06:46.083Z,1470
2018-08-31T09:07:46.653Z,1475
2018-08-31T09:08:47.231Z,1460
2018-08-31T09:09:47.804Z,1455
2018-08-31T09:10:48.375Z,1470
2018-08-31T09:11:48.979Z,1485
2018-08-31T09:12:49.516Z,1480
2018-08-31T09:13:50.436Z,1450
2018-08-31T09:14:51.088Z,1480
2018-08-31T09:15:51.668Z,1470
2018-08-31T09:16:52.240Z,1470
2018-08-31T09:17:52.817Z,1485
2018-08-31T09:18:53.391Z,1440
2018-08-31T09:19:53.961Z,1495
2018-08-31T09:20:54.537Z,1495
2018-08-31T09:21:55.111Z,1505
2018-08-31T09:22:55.685Z,1530
2018-08-31T09:23:56.254Z,1530
2018-08-31T09:24:56.827Z,1215
2018-08-31T09:25:57.392Z,1535
2018-08-31T09:26:57.971Z,1495
2018-08-31T09:27:58.535Z,1320
2018-08-31T09:28:59.097Z,1340
2018-08-31T09:29:59.660Z,1500
2018-08-31T09:31:00.230Z,1510
2018-08-31T09:32:00.794Z,1525
2018-08-31T09:33:01.366Z,1550
2018-08-31T09:34:01.935Z,1565
2018-08-31T09:35:02.499Z,1575
2018-08-31T09:36:03.074Z,1580
2018-08-31T09:37:03.639Z,1600
2018-08-31T09:38:04.208Z,1650
2018-08-31T09:39:04.783Z,1665
2018-08-31T09:40:05.355Z,1690
2018-08-31T09:41:05.925Z,1690
2018-08-31T09:42:06.496Z,1685
2018-08-31T09:43:07.121Z,1640
2018-08-31T09:44:07.639Z,1675
2018-08-31T09:45:08.205Z,1690
2018-08-31T09:46:08.776Z,1665
2018-08-31T09:47:09.349Z,1625
2018-08-31T09:48:09.921Z,1625
2018-08-31T09:49:10.490Z,1635
2018-08-31T09:50:11.060Z,995
2018-08-31T09:51:11.628Z,805
2018-08-31T09:52:12.202Z,1635
2018-08-31T09:54:28.220Z,1680
2018-08-31T09:55:28.790Z,1695
2018-08-31T09:56:29.361Z,1730
2018-08-31T09:57:29.996Z,1735
2018-08-31T09:58:30.496Z,1780
2018-08-31T09:59:31.063Z,1760
2018-08-31T10:00:31.634Z,1805
2018-08-31T10:01:32.203Z,1850
2018-08-31T10:02:32.774Z,1870
2018-08-31T10:03:33.342Z,1925
2018-08-31T10:04:33.907Z,1925
2018-08-31T10:05:34.481Z,1555
2018-08-31T10:06:35.053Z,1975
2018-08-31T10:07:35.625Z,1990
2018-08-31T10:08:36.197Z,2000
2018-08-31T10:09:36.772Z,2015
2018-08-31T10:10:37.355Z,2015
2018-08-31T10:11:37.908Z,2065
2018-08-31T10:12:38.478Z,2125
2018-08-31T10:13:39.067Z,2160
2018-08-31T10:14:39.620Z,2125
2018-08-31T10:15:40.197Z,825
2018-08-31T10:16:40.764Z,780
2018-08-31T10:17:41.333Z,1995
2018-08-31T10:18:41.923Z,2175
2018-08-31T10:19:42.477Z,2235
2018-08-31T10:20:43.046Z,2160
2018-08-31T10:21:43.608Z,1140
2018-08-31T10:22:44.183Z,2340
2018-08-31T10:23:44.755Z,2285
2018-08-31T10:24:45.321Z,830
2018-08-31T10:25:45.887Z,670
2018-08-31T10:26:46.462Z,660
2018-08-31T10:27:47.027Z,660
2018-08-31T10:28:47.598Z,685
2018-08-31T10:29:48.164Z,780
2018-08-31T10:30:48.738Z,2360
2018-08-31T10:31:49.309Z,2575
2018-08-31T10:32:49.881Z,2585
2018-08-31T10:33:50.447Z,2570
2018-08-31T10:34:51.012Z,2530
2018-08-31T10:35:51.574Z,2485
2018-08-31T10:36:52.148Z,2525
2018-08-31T10:37:52.712Z,2490
2018-08-31T10:38:53.284Z,820
2018-08-31T10:39:53.853Z,775
2018-08-31T10:40:54.424Z,2490
2018-08-31T10:41:54.997Z,2340
2018-08-31T10:42:55.573Z,635
2018-08-31T10:43:56.137Z,625
2018-08-31T10:44:56.708Z,630
2018-08-31T10:45:57.277Z,645
2018-08-31T10:46:57.862Z,710
2018-08-31T10:47:58.429Z,2520
2018-08-31T10:48:58.990Z,2570
2018-08-31T10:49:59.553Z,2635
2018-08-31T10:51:00.124Z,2620
2018-08-31T10:52:00.695Z,1215
2018-08-31T10:53:01.268Z,2605
2018-08-31T10:54:01.832Z,925
2018-08-31T10:55:02.403Z,2710
2018-08-31T10:56:02.974Z,830
2018-08-31T10:57:03.545Z,2830
2018-08-31T10:58:04.138Z,2830
2018-08-31T10:59:04.693Z,2535
2018-08-31T11:00:05.304Z,1945
2018-08-31T11:01:05.835Z,2870
2018-08-31T11:02:06.402Z,2840
2018-08-31T11:03:06.977Z,2855
2018-08-31T11:04:07.548Z,2700
2018-08-31T11:05:08.121Z,2720
2018-08-31T11:06:08.692Z,2775
2018-08-31T11:07:09.268Z,2790
2018-08-31T11:08:09.838Z,2755
2018-08-31T11:09:10.401Z,2845
2018-08-31T11:10:10.976Z,2880
2018-08-31T11:11:11.551Z,2860
2018-08-31T11:12:12.122Z,2820
2018-08-31T11:13:12.767Z,2860
2018-08-31T11:14:13.263Z,2700
2018-08-31T11:15:13.904Z,2855
2018-08-31T11:16:14.402Z,2855
2018-08-31T11:17:14.969Z,2870
2018-08-31T11:18:15.543Z,2835
2018-08-31T11:19:16.109Z,2865
2018-08-31T11:20:16.675Z,2955
2018-08-31T11:21:17.249Z,3085
2018-08-31T11:22:17.822Z,3060
2018-08-31T11:23:18.394Z,3055
2018-08-31T11:24:19.013Z,3130
2018-08-31T11:25:19.585Z,3160
2018-08-31T11:26:20.159Z,3150
2018-08-31T11:27:20.731Z,3115
2018-08-31T11:28:21.302Z,2940
2018-08-31T11:29:21.875Z,2460
2018-08-31T11:30:22.447Z,1290
2018-08-31T11:31:23.023Z,2935
2018-08-31T11:32:23.596Z,2875
2018-08-31T11:33:24.170Z,2805
2018-08-31T11:34:24.753Z,2865
2018-08-31T11:35:25.314Z,2845
2018-08-31T11:36:25.883Z,2760
2018-08-31T11:37:26.452Z,1905
2018-08-31T11:38:27.025Z,2620
2018-08-31T11:39:27.621Z,2630
2018-08-31T11:40:28.175Z,2580
2018-08-31T11:41:28.752Z,2540
2018-08-31T11:42:29.317Z,850
2018-08-31T11:43:29.956Z,800
2018-08-31T11:44:30.486Z,780
2018-08-31T11:45:31.056Z,770
2018-08-31T11:46:31.635Z,775
2018-08-31T11:47:32.201Z,770
2018-08-31T11:48:32.766Z,770
2018-08-31T11:49:33.346Z,785
2018-08-31T11:50:33.910Z,800
2018-08-31T11:51:34.480Z,835
2018-08-31T11:52:35.048Z,900
2018-08-31T11:53:35.619Z,1765
2018-08-31T11:54:36.189Z,960
2018-08-31T11:55:36.758Z,900
2018-08-31T11:56:37.329Z,940
2018-08-31T11:57:37.898Z,1320
2018-08-31T11:58:38.468Z,2350
2018-08-31T11:59:39.085Z,2455
2018-08-31T12:00:39.675Z,2425
2018-08-31T12:01:40.230Z,2580
2018-08-31T12:02:40.799Z,2610
2018-08-31T12:03:41.368Z,2670
2018-08-31T12:04:41.941Z,2630
2018-08-31T12:05:42.508Z,2615
2018-08-31T12:06:43.087Z,2610
2018-08-31T12:07:43.716Z,2650
2018-08-31T12:08:44.238Z,2710
2018-08-31T12:09:44.809Z,2660
2018-08-31T12:10:45.376Z,2710
2018-08-31T12:11:45.949Z,2755
2018-08-31T12:12:46.515Z,2775
2018-08-31T12:13:47.081Z,2805
2018-08-31T12:14:47.647Z,2825
2018-08-31T12:15:48.219Z,2745
2018-08-31T12:16:48.791Z,2695
2018-08-31T12:17:49.356Z,2590
2018-08-31T12:18:49.930Z,910
2018-08-31T12:19:50.501Z,840
2018-08-31T12:20:51.083Z,810
2018-08-31T12:21:51.643Z,780
2018-08-31T12:22:52.216Z,745
2018-08-31T12:23:52.799Z,725
2018-08-31T12:24:53.358Z,710
2018-08-31T12:25:53.920Z,705
2018-08-31T12:26:54.494Z,705
2018-08-31T12:27:55.058Z,715
2018-08-31T12:28:55.628Z,720
2018-08-31T12:29:56.198Z,725
2018-08-31T12:30:56.769Z,725
2018-08-31T12:31:57.337Z,735
2018-08-31T12:32:57.904Z,755
2018-08-31T12:33:58.475Z,790
2018-08-31T12:34:59.040Z,860
2018-08-31T12:35:59.631Z,1125
2018-08-31T12:37:00.175Z,2475
2018-08-31T12:38:00.738Z,2715
2018-08-31T12:39:01.304Z,2700
2018-08-31T12:40:01.882Z,2715
2018-08-31T12:41:02.455Z,2730
2018-08-31T12:42:03.023Z,2700
2018-08-31T12:43:03.590Z,1610
2018-08-31T12:44:04.198Z,1390
2018-08-31T12:45:04.729Z,1265
2018-08-31T12:46:05.298Z,1035
2018-08-31T12:47:05.888Z,1015
2018-08-31T12:48:06.438Z,1070
2018-08-31T12:49:07.047Z,1155
2018-08-31T12:50:07.572Z,1105
2018-08-31T12:51:08.144Z,1110
2018-08-31T12:52:08.703Z,1080
2018-08-31T12:53:09.266Z,1050
2018-08-31T12:54:09.841Z,1020
2018-08-31T12:55:10.414Z,1005
2018-08-31T12:56:10.982Z,1045
2018-08-31T12:57:11.559Z,1050
2018-08-31T12:58:12.130Z,940
2018-08-31T12:59:12.700Z,990
2018-08-31T13:00:13.271Z,925
2018-08-31T13:01:13.828Z,945
2018-08-31T13:02:14.393Z,1035
2018-08-31T13:03:14.964Z,1115
2018-08-31T13:04:15.548Z,1290
2018-08-31T13:05:16.118Z,1690
2018-08-31T13:06:16.690Z,2010
2018-08-31T13:07:17.259Z,2135
2018-08-31T13:08:17.823Z,2380
2018-08-31T13:09:18.386Z,2000
2018-08-31T13:10:18.956Z,2235
2018-08-31T13:11:19.530Z,2355
2018-08-31T13:12:20.108Z,2400
2018-08-31T13:13:20.678Z,2500
2018-08-31T13:14:21.252Z,2525
2018-08-31T13:15:21.820Z,2435
2018-08-31T13:16:22.390Z,2425
2018-08-31T13:17:22.965Z,2355
2018-08-31T13:18:23.528Z,2375
2018-08-31T13:19:24.103Z,2415
2018-08-31T13:20:24.670Z,2410
2018-08-31T13:21:25.244Z,2410
2018-08-31T13:22:25.815Z,2390
2018-08-31T13:23:26.385Z,2195
2018-08-31T13:24:26.976Z,2335
2018-08-31T13:25:27.584Z,2390
2018-08-31T13:26:28.121Z,2500
2018-08-31T13:27:28.686Z,2530
2018-08-31T13:28:29.252Z,2595
2018-08-31T13:29:29.824Z,2645
2018-08-31T13:30:30.394Z,2570
2018-08-31T13:31:30.965Z,2495
2018-08-31T13:32:31.538Z,1505
2018-08-31T13:33:32.107Z,900
2018-08-31T13:34:32.667Z,845
2018-08-31T13:35:33.234Z,820
2018-08-31T13:36:33.821Z,820
2018-08-31T13:37:34.391Z,805
2018-08-31T13:38:34.960Z,790
2018-08-31T13:39:35.532Z,790
2018-08-31T13:40:36.102Z,810
2018-08-31T13:41:36.689Z,875
2018-08-31T13:42:37.256Z,1365
2018-08-31T13:43:37.827Z,875
2018-08-31T13:44:38.417Z,1270
2018-08-31T13:45:38.983Z,1860
2018-08-31T13:46:39.569Z,1755
2018-08-31T13:47:40.156Z,1705
2018-08-31T13:48:40.725Z,1525
2018-08-31T13:49:41.287Z,1590
2018-08-31T13:50:41.864Z,1560
2018-08-31T13:51:42.430Z,1520
2018-08-31T13:52:43.067Z,1445
2018-08-31T13:53:43.561Z,1290
2018-08-31T13:54:44.131Z,1320
2018-08-31T13:55:44.701Z,1300
2018-08-31T13:56:45.271Z,1325
2018-08-31T13:57:45.840Z,1340
2018-08-31T13:58:46.411Z,1370
2018-08-31T13:59:46.979Z,1440
2018-08-31T14:00:47.548Z,1600
2018-08-31T14:01:48.119Z,1685
2018-08-31T14:02:48.688Z,1755
2018-08-31T14:03:49.358Z,1705
2018-08-31T14:04:49.822Z,1695
2018-08-31T14:05:50.385Z,1705
2018-08-31T14:06:50.966Z,1700
2018-08-31T14:07:51.529Z,1660